sensor_id;sensor_type;location;lat;lon;timestamp;P1;durP1;ratioP1;P2;durP2;ratioP2
47305;SDS011;33043;48.390;11.734;2022-08-01T03:30:54;6.10;;;4.78;;
47305;SDS011;33043;48.390;11.734;2022-08-01T03:33:21;6.07;;;4.85;;
47305;SDS011;33043;48.390;11.734;2022-08-01T03:35:48;8.90;;;5.43;;
47305;SDS011;33043;48.390;11.734;2022-08-01T03:38:17;6.25;;;4.78;;
47305;SDS011;33043;48.390;11.734;2022-08-01T03:40:52;6.32;;;5.15;;
47305;SDS011;33043;48.390;11.734;2022-08-01T03:43:21;7.22;;;5.00;;
47305;SDS011;33043;48.390;11.734;2022-08-01T03:48:18;6.47;;;4.95;;
47305;SDS011;33043;48.390;11.734;2022-08-01T03:50:48;6.47;;;4.97;;
47305;SDS011;33043;48.390;11.734;2022-08-01T03:53:16;6.72;;;5.05;;
47305;SDS011;33043;48.390;11.734;2022-08-01T03:55:46;5.37;;;4.78;;
47305;SDS011;33043;48.390;11.734;2022-08-01T03:58:13;9.27;;;5.20;;
47305;SDS011;33043;48.390;11.734;2022-08-01T04:00:40;5.22;;;4.70;;
47305;SDS011;33043;48.390;11.734;2022-08-01T04:03:07;5.60;;;4.40;;
47305;SDS011;33043;48.390;11.734;2022-08-01T04:05:34;7.00;;;4.97;;
47305;SDS011;33043;48.390;11.734;2022-08-01T04:08:01;9.15;;;5.35;;
47305;SDS011;33043;48.390;11.734;2022-08-01T04:10:28;7.32;;;4.70;;
47305;SDS011;33043;48.390;11.734;2022-08-01T04:12:54;5.03;;;4.53;;
47305;SDS011;33043;48.390;11.734;2022-08-01T04:15:20;5.87;;;4.45;;
47305;SDS011;33043;48.390;11.734;2022-08-01T04:17:47;4.85;;;4.35;;
47305;SDS011;33043;48.390;11.734;2022-08-01T04:20:13;6.55;;;4.07;;
47305;SDS011;33043;48.390;11.734;2022-08-01T04:22:41;7.75;;;4.80;;
47305;SDS011;33043;48.390;11.734;2022-08-01T04:25:10;6.82;;;4.12;;
47305;SDS011;33043;48.390;11.734;2022-08-01T04:27:38;4.82;;;3.95;;
47305;SDS011;33043;48.390;11.734;2022-08-01T04:30:06;5.18;;;4.12;;
47305;SDS011;33043;48.390;11.734;2022-08-01T04:32:33;4.53;;;3.97;;
47305;SDS011;33043;48.390;11.734;2022-08-01T04:35:02;4.93;;;4.00;;
47305;SDS011;33043;48.390;11.734;2022-08-01T04:37:30;7.55;;;3.95;;
47305;SDS011;33043;48.390;11.734;2022-08-01T04:39:57;4.28;;;3.67;;
47305;SDS011;33043;48.390;11.734;2022-08-01T04:42:24;5.22;;;3.97;;
47305;SDS011;33043;48.390;11.734;2022-08-01T04:44:51;7.55;;;3.95;;
47305;SDS011;33043;48.390;11.734;2022-08-01T04:47:17;5.97;;;4.05;;
47305;SDS011;33043;48.390;11.734;2022-08-01T04:49:43;8.45;;;4.07;;
47305;SDS011;33043;48.390;11.734;2022-08-01T04:52:11;7.85;;;4.12;;
47305;SDS011;33043;48.390;11.734;2022-08-01T04:54:37;8.30;;;3.95;;
47305;SDS011;33043;48.390;11.734;2022-08-01T04:57:04;5.10;;;4.00;;
47305;SDS011;33043;48.390;11.734;2022-08-01T04:59:31;9.32;;;4.30;;
47305;SDS011;33043;48.390;11.734;2022-08-01T05:02:14;5.53;;;3.72;;
47305;SDS011;33043;48.390;11.734;2022-08-01T05:04:42;8.60;;;4.05;;
47305;SDS011;33043;48.390;11.734;2022-08-01T05:07:08;7.72;;;4.15;;
47305;SDS011;33043;48.390;11.734;2022-08-01T05:09:35;7.43;;;3.87;;
47305;SDS011;33043;48.390;11.734;2022-08-01T05:12:02;3.37;;;3.05;;
47305;SDS011;33043;48.390;11.734;2022-08-01T05:14:29;5.10;;;3.97;;
47305;SDS011;33043;48.390;11.734;2022-08-01T05:17:06;4.60;;;3.78;;
47305;SDS011;33043;48.390;11.734;2022-08-01T05:19:33;8.15;;;3.60;;
47305;SDS011;33043;48.390;11.734;2022-08-01T05:22:00;4.85;;;4.22;;
47305;SDS011;33043;48.390;11.734;2022-08-01T05:24:32;7.03;;;3.58;;
47305;SDS011;33043;48.390;11.734;2022-08-01T05:26:59;5.25;;;3.45;;
47305;SDS011;33043;48.390;11.734;2022-08-01T05:29:25;4.20;;;3.83;;
47305;SDS011;33043;48.390;11.734;2022-08-01T05:31:52;6.95;;;3.67;;
47305;SDS011;33043;48.390;11.734;2022-08-01T05:34:18;5.40;;;3.75;;
47305;SDS011;33043;48.390;11.734;2022-08-01T05:36:45;3.78;;;2.97;;
47305;SDS011;33043;48.390;11.734;2022-08-01T05:39:11;5.97;;;3.33;;
47305;SDS011;33043;48.390;11.734;2022-08-01T05:41:38;4.80;;;3.53;;
47305;SDS011;33043;48.390;11.734;2022-08-01T05:44:04;3.42;;;3.08;;
47305;SDS011;33043;48.390;11.734;2022-08-01T05:46:31;6.65;;;3.75;;
47305;SDS011;33043;48.390;11.734;2022-08-01T05:48:59;6.10;;;3.12;;
47305;SDS011;33043;48.390;11.734;2022-08-01T05:51:25;9.82;;;3.70;;
47305;SDS011;33043;48.390;11.734;2022-08-01T05:53:52;7.28;;;3.30;;
47305;SDS011;33043;48.390;11.734;2022-08-01T05:56:19;8.43;;;3.72;;
47305;SDS011;33043;48.390;11.734;2022-08-01T05:58:45;21.73;;;4.50;;
47305;SDS011;33043;48.390;11.734;2022-08-01T06:01:12;27.75;;;5.22;;
47305;SDS011;33043;48.390;11.734;2022-08-01T06:03:38;5.28;;;3.40;;
47305;SDS011;33043;48.390;11.734;2022-08-01T06:06:04;9.73;;;3.40;;
47305;SDS011;33043;48.390;11.734;2022-08-01T06:08:31;5.85;;;3.50;;
47305;SDS011;33043;48.390;11.734;2022-08-01T06:10:57;5.22;;;3.25;;
47305;SDS011;33043;48.390;11.734;2022-08-01T06:13:24;4.30;;;3.15;;
47305;SDS011;33043;48.390;11.734;2022-08-01T06:15:50;6.50;;;3.40;;
47305;SDS011;33043;48.390;11.734;2022-08-01T06:18:16;7.75;;;3.15;;
47305;SDS011;33043;48.390;11.734;2022-08-01T06:20:43;14.13;;;3.05;;
47305;SDS011;33043;48.390;11.734;2022-08-01T06:23:10;12.07;;;4.35;;
47305;SDS011;33043;48.390;11.734;2022-08-01T06:25:36;7.35;;;3.80;;
47305;SDS011;33043;48.390;11.734;2022-08-01T06:28:02;10.60;;;3.30;;
47305;SDS011;33043;48.390;11.734;2022-08-01T06:30:29;7.32;;;3.42;;
47305;SDS011;33043;48.390;11.734;2022-08-01T06:32:55;16.30;;;4.18;;
47305;SDS011;33043;48.390;11.734;2022-08-01T06:35:24;15.20;;;4.15;;
47305;SDS011;33043;48.390;11.734;2022-08-01T06:37:50;23.02;;;5.70;;
47305;SDS011;33043;48.390;11.734;2022-08-01T06:40:16;4.80;;;3.08;;
47305;SDS011;33043;48.390;11.734;2022-08-01T06:42:43;3.37;;;2.50;;
47305;SDS011;33043;48.390;11.734;2022-08-01T06:45:11;4.15;;;2.12;;
47305;SDS011;33043;48.390;11.734;2022-08-01T06:47:38;11.90;;;2.30;;
47305;SDS011;33043;48.390;11.734;2022-08-01T06:50:05;5.20;;;2.20;;
47305;SDS011;33043;48.390;11.734;2022-08-01T06:52:31;3.78;;;2.15;;
47305;SDS011;33043;48.390;11.734;2022-08-01T06:54:58;6.32;;;2.50;;
47305;SDS011;33043;48.390;11.734;2022-08-01T06:57:24;2.20;;;2.00;;
47305;SDS011;33043;48.390;11.734;2022-08-01T06:59:51;5.07;;;2.45;;
47305;SDS011;33043;48.390;11.734;2022-08-01T07:02:18;2.83;;;2.25;;
47305;SDS011;33043;48.390;11.734;2022-08-01T07:04:44;8.35;;;2.35;;
47305;SDS011;33043;48.390;11.734;2022-08-01T07:07:10;2.35;;;2.00;;
47305;SDS011;33043;48.390;11.734;2022-08-01T07:09:36;2.85;;;2.30;;
47305;SDS011;33043;48.390;11.734;2022-08-01T07:12:06;3.12;;;1.95;;
47305;SDS011;33043;48.390;11.734;2022-08-01T07:14:32;4.45;;;2.05;;
47305;SDS011;33043;48.390;11.734;2022-08-01T07:16:58;4.53;;;2.22;;
47305;SDS011;33043;48.390;11.734;2022-08-01T07:19:25;3.50;;;2.25;;
47305;SDS011;33043;48.390;11.734;2022-08-01T07:21:51;3.78;;;2.28;;
47305;SDS011;33043;48.390;11.734;2022-08-01T07:24:18;2.58;;;2.20;;
47305;SDS011;33043;48.390;11.734;2022-08-01T07:26:45;3.97;;;1.73;;
47305;SDS011;33043;48.390;11.734;2022-08-01T07:29:12;2.03;;;1.40;;
47305;SDS011;33043;48.390;11.734;2022-08-01T07:31:38;2.55;;;2.10;;
47305;SDS011;33043;48.390;11.734;2022-08-01T07:34:04;3.15;;;2.12;;
47305;SDS011;33043;48.390;11.734;2022-08-01T07:36:31;8.98;;;2.05;;
47305;SDS011;33043;48.390;11.734;2022-08-01T07:38:57;4.22;;;1.85;;
47305;SDS011;33043;48.390;11.734;2022-08-01T07:41:23;4.20;;;1.80;;
47305;SDS011;33043;48.390;11.734;2022-08-01T07:43:50;3.00;;;1.92;;
47305;SDS011;33043;48.390;11.734;2022-08-01T07:46:16;2.87;;;1.65;;
47305;SDS011;33043;48.390;11.734;2022-08-01T07:48:42;2.42;;;2.22;;
47305;SDS011;33043;48.390;11.734;2022-08-01T07:51:09;4.10;;;1.80;;
47305;SDS011;33043;48.390;11.734;2022-08-01T07:53:35;2.22;;;2.05;;
47305;SDS011;33043;48.390;11.734;2022-08-01T07:56:02;2.25;;;1.70;;
47305;SDS011;33043;48.390;11.734;2022-08-01T07:58:31;3.67;;;1.95;;
47305;SDS011;33043;48.390;11.734;2022-08-01T08:00:57;2.37;;;1.70;;
47305;SDS011;33043;48.390;11.734;2022-08-01T08:03:24;2.05;;;1.80;;
47305;SDS011;33043;48.390;11.734;2022-08-01T08:05:50;4.37;;;1.75;;
47305;SDS011;33043;48.390;11.734;2022-08-01T08:08:16;5.97;;;1.87;;
47305;SDS011;33043;48.390;11.734;2022-08-01T08:10:43;4.40;;;1.80;;
47305;SDS011;33043;48.390;11.734;2022-08-01T08:13:09;3.10;;;2.08;;
47305;SDS011;33043;48.390;11.734;2022-08-01T08:15:36;3.50;;;2.00;;
47305;SDS011;33043;48.390;11.734;2022-08-01T08:18:03;10.85;;;2.50;;
47305;SDS011;33043;48.390;11.734;2022-08-01T08:20:29;6.72;;;1.80;;
47305;SDS011;33043;48.390;11.734;2022-08-01T08:22:56;3.20;;;1.90;;
47305;SDS011;33043;48.390;11.734;2022-08-01T08:25:24;4.82;;;2.00;;
47305;SDS011;33043;48.390;11.734;2022-08-01T08:27:51;4.53;;;2.08;;
47305;SDS011;33043;48.390;11.734;2022-08-01T08:30:17;6.32;;;2.30;;
47305;SDS011;33043;48.390;11.734;2022-08-01T08:32:44;11.48;;;2.60;;
47305;SDS011;33043;48.390;11.734;2022-08-01T08:35:10;21.73;;;3.20;;
47305;SDS011;33043;48.390;11.734;2022-08-01T08:37:37;6.40;;;2.17;;
47305;SDS011;33043;48.390;11.734;2022-08-01T08:40:04;2.25;;;1.70;;
47305;SDS011;33043;48.390;11.734;2022-08-01T08:42:30;6.37;;;2.45;;
47305;SDS011;33043;48.390;11.734;2022-08-01T08:44:56;8.43;;;2.17;;
47305;SDS011;33043;48.390;11.734;2022-08-01T08:47:23;6.75;;;2.70;;
47305;SDS011;33043;48.390;11.734;2022-08-01T08:49:52;9.02;;;2.72;;
47305;SDS011;33043;48.390;11.734;2022-08-01T08:52:18;13.73;;;2.87;;
47305;SDS011;33043;48.390;11.734;2022-08-01T08:54:45;12.90;;;3.12;;
47305;SDS011;33043;48.390;11.734;2022-08-01T08:57:13;6.05;;;2.83;;
47305;SDS011;33043;48.390;11.734;2022-08-01T08:59:40;4.10;;;2.45;;
47305;SDS011;33043;48.390;11.734;2022-08-01T09:02:07;4.47;;;1.80;;
47305;SDS011;33043;48.390;11.734;2022-08-01T09:04:35;7.12;;;2.30;;
47305;SDS011;33043;48.390;11.734;2022-08-01T09:07:03;5.12;;;2.50;;
47305;SDS011;33043;48.390;11.734;2022-08-01T09:09:30;5.72;;;2.60;;
47305;SDS011;33043;48.390;11.734;2022-08-01T09:11:56;3.78;;;1.80;;
47305;SDS011;33043;48.390;11.734;2022-08-01T09:14:23;5.35;;;2.20;;
47305;SDS011;33043;48.390;11.734;2022-08-01T09:17:25;2.83;;;1.80;;
47305;SDS011;33043;48.390;11.734;2022-08-01T09:19:46;7.72;;;2.65;;
47305;SDS011;33043;48.390;11.734;2022-08-01T09:22:18;4.78;;;2.12;;
47305;SDS011;33043;48.390;11.734;2022-08-01T09:27:42;8.63;;;2.58;;
47305;SDS011;33043;48.390;11.734;2022-08-01T09:30:12;18.15;;;2.83;;
47305;SDS011;33043;48.390;11.734;2022-08-01T09:35:38;9.23;;;2.37;;
47305;SDS011;33043;48.390;11.734;2022-08-01T09:38:19;5.03;;;1.70;;
47305;SDS011;33043;48.390;11.734;2022-08-01T09:40:56;5.25;;;2.40;;
47305;SDS011;33043;48.390;11.734;2022-08-01T09:43:23;3.15;;;1.70;;
47305;SDS011;33043;48.390;11.734;2022-08-01T09:45:51;3.55;;;2.20;;
47305;SDS011;33043;48.390;11.734;2022-08-01T09:48:17;7.00;;;2.72;;
47305;SDS011;33043;48.390;11.734;2022-08-01T09:50:48;13.48;;;2.80;;
47305;SDS011;33043;48.390;11.734;2022-08-01T09:53:15;5.97;;;2.20;;
47305;SDS011;33043;48.390;11.734;2022-08-01T09:55:41;2.65;;;1.90;;
47305;SDS011;33043;48.390;11.734;2022-08-01T09:58:08;3.12;;;2.08;;
47305;SDS011;33043;48.390;11.734;2022-08-01T10:00:37;3.40;;;2.12;;
47305;SDS011;33043;48.390;11.734;2022-08-01T10:05:45;3.10;;;2.30;;
47305;SDS011;33043;48.390;11.734;2022-08-01T10:08:12;5.50;;;2.33;;
47305;SDS011;33043;48.390;11.734;2022-08-01T10:10:39;9.82;;;2.67;;
47305;SDS011;33043;48.390;11.734;2022-08-01T10:13:05;13.32;;;3.12;;
47305;SDS011;33043;48.390;11.734;2022-08-01T10:15:32;11.82;;;3.03;;
47305;SDS011;33043;48.390;11.734;2022-08-01T10:18:00;4.72;;;2.00;;
47305;SDS011;33043;48.390;11.734;2022-08-01T10:20:28;4.18;;;2.10;;
47305;SDS011;33043;48.390;11.734;2022-08-01T10:22:54;5.15;;;2.40;;
47305;SDS011;33043;48.390;11.734;2022-08-01T10:25:21;2.87;;;2.28;;
47305;SDS011;33043;48.390;11.734;2022-08-01T10:27:52;3.42;;;2.20;;
47305;SDS011;33043;48.390;11.734;2022-08-01T10:30:20;3.42;;;2.28;;
47305;SDS011;33043;48.390;11.734;2022-08-01T10:32:47;3.42;;;2.17;;
47305;SDS011;33043;48.390;11.734;2022-08-01T10:35:13;3.45;;;2.40;;
47305;SDS011;33043;48.390;11.734;2022-08-01T10:37:43;3.05;;;2.33;;
47305;SDS011;33043;48.390;11.734;2022-08-01T10:40:14;4.87;;;2.53;;
47305;SDS011;33043;48.390;11.734;2022-08-01T10:42:41;2.65;;;2.30;;
47305;SDS011;33043;48.390;11.734;2022-08-01T10:45:08;2.95;;;2.25;;
47305;SDS011;33043;48.390;11.734;2022-08-01T10:47:38;3.85;;;2.70;;
47305;SDS011;33043;48.390;11.734;2022-08-01T10:50:08;3.10;;;2.20;;
47305;SDS011;33043;48.390;11.734;2022-08-01T10:52:37;2.92;;;2.47;;
47305;SDS011;33043;48.390;11.734;2022-08-01T10:55:07;4.40;;;2.45;;
47305;SDS011;33043;48.390;11.734;2022-08-01T10:57:41;4.65;;;2.42;;
47305;SDS011;33043;48.390;11.734;2022-08-01T11:00:08;2.50;;;2.12;;
47305;SDS011;33043;48.390;11.734;2022-08-01T11:02:34;6.37;;;2.03;;
47305;SDS011;33043;48.390;11.734;2022-08-01T11:05:17;2.42;;;2.05;;
47305;SDS011;33043;48.390;11.734;2022-08-01T11:07:46;16.65;;;2.35;;
47305;SDS011;33043;48.390;11.734;2022-08-01T11:12:55;4.90;;;1.73;;
47305;SDS011;33043;48.390;11.734;2022-08-01T11:15:22;2.75;;;1.98;;
47305;SDS011;33043;48.390;11.734;2022-08-01T11:17:52;2.33;;;2.05;;
47305;SDS011;33043;48.390;11.734;2022-08-01T11:30:40;8.32;;;2.40;;
47305;SDS011;33043;48.390;11.734;2022-08-01T11:33:06;3.05;;;1.52;;
47305;SDS011;33043;48.390;11.734;2022-08-01T11:35:34;4.03;;;1.60;;
47305;SDS011;33043;48.390;11.734;2022-08-01T11:40:45;3.22;;;1.40;;
47305;SDS011;33043;48.390;11.734;2022-08-01T11:48:17;2.25;;;1.45;;
47305;SDS011;33043;48.390;11.734;2022-08-01T11:50:43;1.90;;;1.10;;
47305;SDS011;33043;48.390;11.734;2022-08-01T11:53:10;2.92;;;0.95;;
47305;SDS011;33043;48.390;11.734;2022-08-01T11:55:49;5.62;;;1.10;;
47305;SDS011;33043;48.390;11.734;2022-08-01T11:58:20;1.85;;;1.10;;
47305;SDS011;33043;48.390;11.734;2022-08-01T12:00:50;2.00;;;1.00;;
47305;SDS011;33043;48.390;11.734;2022-08-01T12:03:17;3.65;;;1.08;;
47305;SDS011;33043;48.390;11.734;2022-08-01T12:05:48;1.55;;;1.12;;
47305;SDS011;33043;48.390;11.734;2022-08-01T12:08:23;1.10;;;0.85;;
47305;SDS011;33043;48.390;11.734;2022-08-01T12:10:50;7.43;;;1.30;;
47305;SDS011;33043;48.390;11.734;2022-08-01T12:13:16;4.90;;;1.20;;
47305;SDS011;33043;48.390;11.734;2022-08-01T12:15:46;5.37;;;1.00;;
47305;SDS011;33043;48.390;11.734;2022-08-01T12:18:13;4.00;;;1.20;;
47305;SDS011;33043;48.390;11.734;2022-08-01T12:20:41;3.58;;;1.35;;
47305;SDS011;33043;48.390;11.734;2022-08-01T12:23:10;2.72;;;1.10;;
47305;SDS011;33043;48.390;11.734;2022-08-01T12:25:37;1.30;;;1.10;;
47305;SDS011;33043;48.390;11.734;2022-08-01T12:28:09;1.85;;;1.00;;
47305;SDS011;33043;48.390;11.734;2022-08-01T12:30:36;1.77;;;0.93;;
47305;SDS011;33043;48.390;11.734;2022-08-01T12:33:04;1.50;;;1.33;;
47305;SDS011;33043;48.390;11.734;2022-08-01T12:35:31;5.97;;;1.20;;
47305;SDS011;33043;48.390;11.734;2022-08-01T12:37:58;4.87;;;1.00;;
47305;SDS011;33043;48.390;11.734;2022-08-01T12:40:26;3.92;;;1.00;;
47305;SDS011;33043;48.390;11.734;2022-08-01T12:42:54;4.22;;;1.30;;
47305;SDS011;33043;48.390;11.734;2022-08-01T12:45:24;3.47;;;1.50;;
47305;SDS011;33043;48.390;11.734;2022-08-01T12:47:51;4.62;;;1.33;;
47305;SDS011;33043;48.390;11.734;2022-08-01T12:50:19;3.92;;;1.30;;
47305;SDS011;33043;48.390;11.734;2022-08-01T12:52:46;2.97;;;1.20;;
47305;SDS011;33043;48.390;11.734;2022-08-01T12:55:14;2.45;;;1.10;;
47305;SDS011;33043;48.390;11.734;2022-08-01T12:57:42;0.95;;;0.93;;
47305;SDS011;33043;48.390;11.734;2022-08-01T13:00:11;3.12;;;1.30;;
47305;SDS011;33043;48.390;11.734;2022-08-01T13:02:37;2.90;;;1.40;;
47305;SDS011;33043;48.390;11.734;2022-08-01T13:05:04;1.67;;;1.20;;
47305;SDS011;33043;48.390;11.734;2022-08-01T13:08:08;2.28;;;1.52;;
47305;SDS011;33043;48.390;11.734;2022-08-01T13:12:51;3.00;;;1.30;;
47305;SDS011;33043;48.390;11.734;2022-08-01T13:15:25;2.50;;;1.00;;
47305;SDS011;33043;48.390;11.734;2022-08-01T13:17:52;2.53;;;1.20;;
47305;SDS011;33043;48.390;11.734;2022-08-01T13:20:22;1.08;;;0.90;;
47305;SDS011;33043;48.390;11.734;2022-08-01T13:22:49;1.33;;;1.23;;
47305;SDS011;33043;48.390;11.734;2022-08-01T13:25:17;2.80;;;0.90;;
47305;SDS011;33043;48.390;11.734;2022-08-01T13:27:43;3.35;;;1.00;;
47305;SDS011;33043;48.390;11.734;2022-08-01T13:30:17;2.90;;;1.23;;
47305;SDS011;33043;48.390;11.734;2022-08-01T13:32:44;1.35;;;0.90;;
47305;SDS011;33043;48.390;11.734;2022-08-01T13:35:22;8.13;;;1.40;;
47305;SDS011;33043;48.390;11.734;2022-08-01T13:37:49;4.18;;;1.30;;
47305;SDS011;33043;48.390;11.734;2022-08-01T13:40:22;4.22;;;1.42;;
47305;SDS011;33043;48.390;11.734;2022-08-01T13:42:49;2.05;;;1.33;;
47305;SDS011;33043;48.390;11.734;2022-08-01T13:45:15;5.03;;;1.65;;
47305;SDS011;33043;48.390;11.734;2022-08-01T13:47:42;7.28;;;1.90;;
47305;SDS011;33043;48.390;11.734;2022-08-01T13:50:08;2.12;;;1.70;;
47305;SDS011;33043;48.390;11.734;2022-08-01T13:52:35;2.97;;;1.70;;
47305;SDS011;33043;48.390;11.734;2022-08-01T13:55:01;3.75;;;1.40;;
47305;SDS011;33043;48.390;11.734;2022-08-01T13:57:30;2.72;;;2.25;;
47305;SDS011;33043;48.390;11.734;2022-08-01T13:59:56;3.72;;;1.83;;
47305;SDS011;33043;48.390;11.734;2022-08-01T14:02:25;1.92;;;1.40;;
47305;SDS011;33043;48.390;11.734;2022-08-01T14:04:55;3.03;;;1.62;;
47305;SDS011;33043;48.390;11.734;2022-08-01T14:07:24;2.58;;;1.60;;
47305;SDS011;33043;48.390;11.734;2022-08-01T14:09:50;7.28;;;1.58;;
47305;SDS011;33043;48.390;11.734;2022-08-01T14:12:16;8.20;;;2.12;;
47305;SDS011;33043;48.390;11.734;2022-08-01T14:14:43;3.50;;;2.03;;
47305;SDS011;33043;48.390;11.734;2022-08-01T14:17:09;3.25;;;1.60;;
47305;SDS011;33043;48.390;11.734;2022-08-01T14:19:35;2.85;;;1.80;;
47305;SDS011;33043;48.390;11.734;2022-08-01T14:22:01;3.45;;;1.48;;
47305;SDS011;33043;48.390;11.734;2022-08-01T14:24:29;4.15;;;1.73;;
47305;SDS011;33043;48.390;11.734;2022-08-01T14:26:55;3.65;;;1.55;;
47305;SDS011;33043;48.390;11.734;2022-08-01T14:29:21;4.93;;;2.87;;
47305;SDS011;33043;48.390;11.734;2022-08-01T14:31:47;11.25;;;2.33;;
47305;SDS011;33043;48.390;11.734;2022-08-01T14:34:14;13.62;;;2.85;;
47305;SDS011;33043;48.390;11.734;2022-08-01T14:36:42;6.75;;;2.47;;
47305;SDS011;33043;48.390;11.734;2022-08-01T14:39:08;12.27;;;3.22;;
47305;SDS011;33043;48.390;11.734;2022-08-01T14:41:34;3.83;;;2.17;;
47305;SDS011;33043;48.390;11.734;2022-08-01T14:44:01;2.80;;;1.73;;
47305;SDS011;33043;48.390;11.734;2022-08-01T14:46:29;9.05;;;2.10;;
47305;SDS011;33043;48.390;11.734;2022-08-01T14:48:55;10.55;;;2.20;;
47305;SDS011;33043;48.390;11.734;2022-08-01T14:51:21;12.18;;;2.95;;
47305;SDS011;33043;48.390;11.734;2022-08-01T14:53:48;11.70;;;2.42;;
47305;SDS011;33043;48.390;11.734;2022-08-01T14:56:14;18.37;;;3.85;;
47305;SDS011;33043;48.390;11.734;2022-08-01T14:58:40;18.95;;;3.22;;
47305;SDS011;33043;48.390;11.734;2022-08-01T15:01:06;24.98;;;3.20;;
47305;SDS011;33043;48.390;11.734;2022-08-01T15:03:33;18.15;;;2.60;;
47305;SDS011;33043;48.390;11.734;2022-08-01T15:05:59;5.72;;;1.85;;
47305;SDS011;33043;48.390;11.734;2022-08-01T15:08:25;5.93;;;1.98;;
47305;SDS011;33043;48.390;11.734;2022-08-01T15:10:52;9.18;;;2.12;;
47305;SDS011;33043;48.390;11.734;2022-08-01T15:13:18;2.20;;;1.80;;
47305;SDS011;33043;48.390;11.734;2022-08-01T15:15:44;3.03;;;1.77;;
47305;SDS011;33043;48.390;11.734;2022-08-01T15:18:11;4.32;;;1.90;;
47305;SDS011;33043;48.390;11.734;2022-08-01T15:20:37;3.12;;;1.90;;
47305;SDS011;33043;48.390;11.734;2022-08-01T15:23:04;2.33;;;1.77;;
47305;SDS011;33043;48.390;11.734;2022-08-01T15:25:30;1.87;;;1.67;;
47305;SDS011;33043;48.390;11.734;2022-08-01T15:27:56;6.80;;;1.80;;
47305;SDS011;33043;48.390;11.734;2022-08-01T15:30:23;2.87;;;1.60;;
47305;SDS011;33043;48.390;11.734;2022-08-01T15:32:49;9.23;;;2.17;;
47305;SDS011;33043;48.390;11.734;2022-08-01T15:35:15;8.93;;;2.12;;
47305;SDS011;33043;48.390;11.734;2022-08-01T15:37:42;6.25;;;3.28;;
47305;SDS011;33043;48.390;11.734;2022-08-01T15:40:08;11.38;;;2.08;;
47305;SDS011;33043;48.390;11.734;2022-08-01T15:42:35;8.90;;;2.30;;
47305;SDS011;33043;48.390;11.734;2022-08-01T15:45:01;3.03;;;1.70;;
47305;SDS011;33043;48.390;11.734;2022-08-01T15:47:28;3.83;;;1.98;;
47305;SDS011;33043;48.390;11.734;2022-08-01T15:49:54;4.25;;;1.70;;
47305;SDS011;33043;48.390;11.734;2022-08-01T15:52:24;3.58;;;2.10;;
47305;SDS011;33043;48.390;11.734;2022-08-01T15:54:51;2.22;;;1.80;;
47305;SDS011;33043;48.390;11.734;2022-08-01T15:57:17;3.33;;;1.70;;
47305;SDS011;33043;48.390;11.734;2022-08-01T15:59:43;7.62;;;1.65;;
47305;SDS011;33043;48.390;11.734;2022-08-01T16:02:10;1.85;;;1.35;;
47305;SDS011;33043;48.390;11.734;2022-08-01T16:04:36;1.50;;;1.40;;
47305;SDS011;33043;48.390;11.734;2022-08-01T16:07:02;2.72;;;1.50;;
47305;SDS011;33043;48.390;11.734;2022-08-01T16:09:29;2.15;;;1.35;;
47305;SDS011;33043;48.390;11.734;2022-08-01T16:11:55;2.55;;;1.25;;
47305;SDS011;33043;48.390;11.734;2022-08-01T16:14:21;1.85;;;1.35;;
47305;SDS011;33043;48.390;11.734;2022-08-01T16:16:47;3.25;;;1.10;;
47305;SDS011;33043;48.390;11.734;2022-08-01T16:19:14;1.42;;;0.98;;
47305;SDS011;33043;48.390;11.734;2022-08-01T16:21:40;1.15;;;0.90;;
47305;SDS011;33043;48.390;11.734;2022-08-01T16:24:06;1.50;;;1.15;;
47305;SDS011;33043;48.390;11.734;2022-08-01T16:26:33;1.98;;;1.20;;
47305;SDS011;33043;48.390;11.734;2022-08-01T16:28:59;1.02;;;0.90;;
47305;SDS011;33043;48.390;11.734;2022-08-01T16:31:25;1.75;;;1.10;;
47305;SDS011;33043;48.390;11.734;2022-08-01T16:33:52;0.70;;;0.70;;
47305;SDS011;33043;48.390;11.734;2022-08-01T16:36:18;0.90;;;0.77;;
47305;SDS011;33043;48.390;11.734;2022-08-01T16:38:44;1.23;;;1.08;;
47305;SDS011;33043;48.390;11.734;2022-08-01T16:41:11;1.10;;;0.82;;
47305;SDS011;33043;48.390;11.734;2022-08-01T16:43:37;1.67;;;1.12;;
47305;SDS011;33043;48.390;11.734;2022-08-01T16:46:03;1.42;;;0.95;;
47305;SDS011;33043;48.390;11.734;2022-08-01T16:48:32;1.52;;;1.08;;
47305;SDS011;33043;48.390;11.734;2022-08-01T16:50:58;8.55;;;1.30;;
47305;SDS011;33043;48.390;11.734;2022-08-01T16:53:25;4.32;;;1.20;;
47305;SDS011;33043;48.390;11.734;2022-08-01T16:55:51;2.95;;;1.80;;
47305;SDS011;33043;48.390;11.734;2022-08-01T16:58:18;2.30;;;1.10;;
47305;SDS011;33043;48.390;11.734;2022-08-01T17:00:45;1.27;;;1.10;;
47305;SDS011;33043;48.390;11.734;2022-08-01T17:03:14;1.48;;;1.10;;
47305;SDS011;33043;48.390;11.734;2022-08-01T17:05:41;1.33;;;1.23;;
47305;SDS011;33043;48.390;11.734;2022-08-01T17:08:08;1.33;;;1.02;;
47305;SDS011;33043;48.390;11.734;2022-08-01T17:10:35;3.10;;;1.27;;
47305;SDS011;33043;48.390;11.734;2022-08-01T17:13:01;1.70;;;1.27;;
47305;SDS011;33043;48.390;11.734;2022-08-01T17:15:28;2.30;;;1.40;;
47305;SDS011;33043;48.390;11.734;2022-08-01T17:17:55;1.90;;;1.20;;
47305;SDS011;33043;48.390;11.734;2022-08-01T17:20:21;1.15;;;0.98;;
47305;SDS011;33043;48.390;11.734;2022-08-01T17:22:48;3.50;;;1.40;;
47305;SDS011;33043;48.390;11.734;2022-08-01T17:25:15;1.60;;;1.37;;
47305;SDS011;33043;48.390;11.734;2022-08-01T17:27:42;1.48;;;1.30;;
47305;SDS011;33043;48.390;11.734;2022-08-01T17:30:09;1.48;;;1.20;;
47305;SDS011;33043;48.390;11.734;2022-08-01T17:32:36;2.75;;;1.55;;
47305;SDS011;33043;48.390;11.734;2022-08-01T17:35:04;2.60;;;1.30;;
47305;SDS011;33043;48.390;11.734;2022-08-01T17:37:30;3.72;;;1.75;;
47305;SDS011;33043;48.390;11.734;2022-08-01T17:39:56;2.45;;;1.45;;
47305;SDS011;33043;48.390;11.734;2022-08-01T17:42:23;2.30;;;1.50;;
47305;SDS011;33043;48.390;11.734;2022-08-01T17:44:51;2.05;;;1.50;;
47305;SDS011;33043;48.390;11.734;2022-08-01T17:47:17;3.10;;;1.83;;
47305;SDS011;33043;48.390;11.734;2022-08-01T17:49:47;2.30;;;1.58;;
47305;SDS011;33043;48.390;11.734;2022-08-01T17:52:13;2.45;;;1.60;;
47305;SDS011;33043;48.390;11.734;2022-08-01T17:54:40;2.60;;;1.65;;
47305;SDS011;33043;48.390;11.734;2022-08-01T17:57:06;7.22;;;1.65;;
47305;SDS011;33043;48.390;11.734;2022-08-01T17:59:32;1.77;;;1.62;;
47305;SDS011;33043;48.390;11.734;2022-08-01T18:01:58;5.97;;;1.75;;
47305;SDS011;33043;48.390;11.734;2022-08-01T18:04:25;5.47;;;1.90;;
47305;SDS011;33043;48.390;11.734;2022-08-01T18:06:51;2.37;;;1.75;;
47305;SDS011;33043;48.390;11.734;2022-08-01T18:09:17;2.47;;;2.10;;
47305;SDS011;33043;48.390;11.734;2022-08-01T18:11:44;5.35;;;2.40;;
47305;SDS011;33043;48.390;11.734;2022-08-01T18:14:10;5.15;;;2.00;;
47305;SDS011;33043;48.390;11.734;2022-08-01T18:16:36;8.38;;;2.10;;
47305;SDS011;33043;48.390;11.734;2022-08-01T18:19:04;5.32;;;2.08;;
47305;SDS011;33043;48.390;11.734;2022-08-01T18:21:30;5.00;;;2.12;;
47305;SDS011;33043;48.390;11.734;2022-08-01T18:23:57;7.05;;;2.50;;
47305;SDS011;33043;48.390;11.734;2022-08-01T18:26:26;4.35;;;2.10;;
47305;SDS011;33043;48.390;11.734;2022-08-01T18:28:52;4.55;;;1.90;;
47305;SDS011;33043;48.390;11.734;2022-08-01T18:31:19;2.97;;;2.10;;
47305;SDS011;33043;48.390;11.734;2022-08-01T18:33:45;5.50;;;2.20;;
47305;SDS011;33043;48.390;11.734;2022-08-01T18:36:11;3.37;;;2.50;;
47305;SDS011;33043;48.390;11.734;2022-08-01T18:38:38;10.27;;;3.87;;